sensor_id;sensor_type;location;lat;lon;timestamp;P1;durP1;ratioP1;P2;durP2;ratioP2
15466;SDS011;7834;49.452;11.056;2023-11-19T00:00:10;4.53;;;4.13;;
15466;SDS011;7834;49.452;11.056;2023-11-19T00:02:39;4.85;;;4.35;;
15466;SDS011;7834;49.452;11.056;2023-11-19T00:05:05;5.05;;;4.55;;
15466;SDS011;7834;49.452;11.056;2023-11-19T00:07:35;5.55;;;4.97;;
15466;SDS011;7834;49.452;11.056;2023-11-19T00:10:00;5.63;;;4.60;;
15466;SDS011;7834;49.452;11.056;2023-11-19T00:12:29;5.33;;;4.83;;
15466;SDS011;7834;49.452;11.056;2023-11-19T00:14:55;5.38;;;4.88;;
15466;SDS011;7834;49.452;11.056;2023-11-19T00:17:20;5.43;;;4.93;;
15466;SDS011;7834;49.452;11.056;2023-11-19T00:19:46;5.07;;;4.57;;
15466;SDS011;7834;49.452;11.056;2023-11-19T00:22:12;5.57;;;4.97;;
15466;SDS011;7834;49.452;11.056;2023-11-19T00:24:37;5.07;;;4.60;;
15466;SDS011;7834;49.452;11.056;2023-11-19T00:27:03;5.47;;;4.82;;
15466;SDS011;7834;49.452;11.056;2023-11-19T00:29:28;4.90;;;4.50;;
15466;SDS011;7834;49.452;11.056;2023-11-19T00:31:54;5.00;;;4.50;;
15466;SDS011;7834;49.452;11.056;2023-11-19T00:34:19;4.70;;;4.30;;
15466;SDS011;7834;49.452;11.056;2023-11-19T00:36:47;5.82;;;4.78;;
15466;SDS011;7834;49.452;11.056;2023-11-19T00:39:12;5.30;;;4.80;;
15466;SDS011;7834;49.452;11.056;2023-11-19T00:41:40;5.43;;;4.93;;
15466;SDS011;7834;49.452;11.056;2023-11-19T00:44:06;5.60;;;5.10;;
15466;SDS011;7834;49.452;11.056;2023-11-19T00:46:32;5.10;;;4.60;;
15466;SDS011;7834;49.452;11.056;2023-11-19T00:49:00;7.07;;;5.47;;
15466;SDS011;7834;49.452;11.056;2023-11-19T00:51:26;5.88;;;5.15;;
15466;SDS011;7834;49.452;11.056;2023-11-19T00:53:52;5.90;;;5.30;;
15466;SDS011;7834;49.452;11.056;2023-11-19T00:56:18;5.50;;;5.00;;
15466;SDS011;7834;49.452;11.056;2023-11-19T00:58:44;5.55;;;5.05;;
15466;SDS011;7834;49.452;11.056;2023-11-19T01:01:13;5.65;;;5.15;;
15466;SDS011;7834;49.452;11.056;2023-11-19T01:03:39;5.68;;;5.18;;
15466;SDS011;7834;49.452;11.056;2023-11-19T01:06:05;5.90;;;5.30;;
15466;SDS011;7834;49.452;11.056;2023-11-19T01:08:31;5.75;;;5.20;;
15466;SDS011;7834;49.452;11.056;2023-11-19T01:10:56;5.67;;;5.17;;
15466;SDS011;7834;49.452;11.056;2023-11-19T01:13:22;5.50;;;5.00;;
15466;SDS011;7834;49.452;11.056;2023-11-19T01:15:48;5.73;;;5.13;;
15466;SDS011;7834;49.452;11.056;2023-11-19T01:18:13;5.70;;;5.20;;
15466;SDS011;7834;49.452;11.056;2023-11-19T01:20:39;6.10;;;5.50;;
15466;SDS011;7834;49.452;11.056;2023-11-19T01:23:05;10.43;;;8.03;;
15466;SDS011;7834;49.452;11.056;2023-11-19T01:25:30;5.68;;;5.07;;
15466;SDS011;7834;49.452;11.056;2023-11-19T01:27:56;5.17;;;4.67;;
15466;SDS011;7834;49.452;11.056;2023-11-19T01:30:25;5.60;;;4.97;;
15466;SDS011;7834;49.452;11.056;2023-11-19T01:32:51;5.78;;;5.28;;
15466;SDS011;7834;49.452;11.056;2023-11-19T01:35:16;5.53;;;4.93;;
15466;SDS011;7834;49.452;11.056;2023-11-19T01:37:42;5.70;;;5.10;;
15466;SDS011;7834;49.452;11.056;2023-11-19T01:40:08;5.75;;;5.25;;
15466;SDS011;7834;49.452;11.056;2023-11-19T01:42:37;5.57;;;5.07;;
15466;SDS011;7834;49.452;11.056;2023-11-19T01:45:03;5.57;;;5.07;;
15466;SDS011;7834;49.452;11.056;2023-11-19T01:47:32;5.50;;;5.00;;
15466;SDS011;7834;49.452;11.056;2023-11-19T01:49:57;6.10;;;5.47;;
15466;SDS011;7834;49.452;11.056;2023-11-19T01:52:24;5.15;;;4.72;;
15466;SDS011;7834;49.452;11.056;2023-11-19T01:54:50;4.68;;;4.28;;
15466;SDS011;7834;49.452;11.056;2023-11-19T01:57:19;5.43;;;4.93;;
15466;SDS011;7834;49.452;11.056;2023-11-19T01:59:46;5.63;;;5.13;;
15466;SDS011;7834;49.452;11.056;2023-11-19T02:02:12;5.60;;;5.10;;
15466;SDS011;7834;49.452;11.056;2023-11-19T02:04:38;5.50;;;5.00;;
15466;SDS011;7834;49.452;11.056;2023-11-19T02:07:04;5.80;;;5.30;;
15466;SDS011;7834;49.452;11.056;2023-11-19T02:09:29;5.70;;;5.20;;
15466;SDS011;7834;49.452;11.056;2023-11-19T02:11:55;6.03;;;5.43;;
15466;SDS011;7834;49.452;11.056;2023-11-19T02:14:25;5.70;;;4.78;;
15466;SDS011;7834;49.452;11.056;2023-11-19T02:16:52;6.13;;;5.38;;
15466;SDS011;7834;49.452;11.056;2023-11-19T02:19:20;5.68;;;5.18;;
15466;SDS011;7834;49.452;11.056;2023-11-19T02:21:48;5.80;;;5.30;;
15466;SDS011;7834;49.452;11.056;2023-11-19T02:24:14;6.00;;;5.40;;
15466;SDS011;7834;49.452;11.056;2023-11-19T02:29:18;7.72;;;6.00;;
15466;SDS011;7834;49.452;11.056;2023-11-19T02:31:43;5.80;;;5.30;;
15466;SDS011;7834;49.452;11.056;2023-11-19T02:34:10;6.40;;;5.80;;
15466;SDS011;7834;49.452;11.056;2023-11-19T02:36:36;6.70;;;6.05;;
15466;SDS011;7834;49.452;11.056;2023-11-19T02:39:04;6.57;;;5.93;;
15466;SDS011;7834;49.452;11.056;2023-11-19T02:41:34;6.90;;;6.00;;
15466;SDS011;7834;49.452;11.056;2023-11-19T02:44:00;7.00;;;6.30;;
15466;SDS011;7834;49.452;11.056;2023-11-19T02:46:26;6.43;;;5.82;;
15466;SDS011;7834;49.452;11.056;2023-11-19T02:48:52;6.55;;;5.95;;
15466;SDS011;7834;49.452;11.056;2023-11-19T02:51:18;6.72;;;6.13;;
15466;SDS011;7834;49.452;11.056;2023-11-19T02:53:44;7.20;;;6.50;;
15466;SDS011;7834;49.452;11.056;2023-11-19T02:56:13;7.32;;;6.53;;
15466;SDS011;7834;49.452;11.056;2023-11-19T02:59:01;7.47;;;6.77;;
15466;SDS011;7834;49.452;11.056;2023-11-19T03:01:37;9.37;;;7.10;;
15466;SDS011;7834;49.452;11.056;2023-11-19T03:04:02;8.02;;;7.13;;
15466;SDS011;7834;49.452;11.056;2023-11-19T03:06:29;7.25;;;6.55;;
15466;SDS011;7834;49.452;11.056;2023-11-19T03:08:55;7.90;;;6.78;;
15466;SDS011;7834;49.452;11.056;2023-11-19T03:11:20;7.53;;;6.75;;
15466;SDS011;7834;49.452;11.056;2023-11-19T03:13:49;8.40;;;6.90;;
15466;SDS011;7834;49.452;11.056;2023-11-19T03:16:14;7.75;;;6.80;;
15466;SDS011;7834;49.452;11.056;2023-11-19T03:18:40;8.20;;;7.38;;
15466;SDS011;7834;49.452;11.056;2023-11-19T03:21:06;8.50;;;7.33;;
15466;SDS011;7834;49.452;11.056;2023-11-19T03:23:32;8.43;;;7.53;;
15466;SDS011;7834;49.452;11.056;2023-11-19T03:25:57;8.05;;;7.25;;
15466;SDS011;7834;49.452;11.056;2023-11-19T03:28:23;8.33;;;7.47;;
15466;SDS011;7834;49.452;11.056;2023-11-19T03:30:49;8.13;;;7.30;;
15466;SDS011;7834;49.452;11.056;2023-11-19T03:33:15;9.02;;;8.13;;
15466;SDS011;7834;49.452;11.056;2023-11-19T03:35:40;8.63;;;7.73;;
15466;SDS011;7834;49.452;11.056;2023-11-19T03:38:09;9.00;;;8.10;;
15466;SDS011;7834;49.452;11.056;2023-11-19T03:40:35;9.30;;;8.33;;
15466;SDS011;7834;49.452;11.056;2023-11-19T03:43:00;8.88;;;7.97;;
15466;SDS011;7834;49.452;11.056;2023-11-19T03:45:26;9.47;;;8.40;;
15466;SDS011;7834;49.452;11.056;2023-11-19T03:47:52;9.52;;;8.40;;
15466;SDS011;7834;49.452;11.056;2023-11-19T03:50:20;9.55;;;8.50;;
15466;SDS011;7834;49.452;11.056;2023-11-19T03:52:46;9.65;;;8.25;;
15466;SDS011;7834;49.452;11.056;2023-11-19T03:55:12;8.93;;;8.03;;
15466;SDS011;7834;49.452;11.056;2023-11-19T03:57:38;9.20;;;8.20;;
15466;SDS011;7834;49.452;11.056;2023-11-19T04:00:04;9.27;;;8.32;;
15466;SDS011;7834;49.452;11.056;2023-11-19T04:02:39;9.43;;;8.43;;
15466;SDS011;7834;49.452;11.056;2023-11-19T04:05:08;9.98;;;8.75;;
15466;SDS011;7834;49.452;11.056;2023-11-19T04:07:35;10.10;;;9.02;;
15466;SDS011;7834;49.452;11.056;2023-11-19T04:10:00;10.43;;;9.13;;
15466;SDS011;7834;49.452;11.056;2023-11-19T04:12:26;9.55;;;8.55;;
15466;SDS011;7834;49.452;11.056;2023-11-19T04:14:52;10.07;;;8.93;;
15466;SDS011;7834;49.452;11.056;2023-11-19T04:17:18;10.55;;;9.30;;
15466;SDS011;7834;49.452;11.056;2023-11-19T04:19:46;12.03;;;9.40;;
15466;SDS011;7834;49.452;11.056;2023-11-19T04:22:11;10.57;;;9.45;;
15466;SDS011;7834;49.452;11.056;2023-11-19T04:24:37;10.70;;;9.60;;
15466;SDS011;7834;49.452;11.056;2023-11-19T04:27:05;11.30;;;9.48;;
15466;SDS011;7834;49.452;11.056;2023-11-19T04:29:31;10.45;;;9.35;;
15466;SDS011;7834;49.452;11.056;2023-11-19T04:31:57;10.70;;;9.60;;
15466;SDS011;7834;49.452;11.056;2023-11-19T04:34:23;10.93;;;9.38;;
15466;SDS011;7834;49.452;11.056;2023-11-19T04:36:49;11.60;;;9.30;;
15466;SDS011;7834;49.452;11.056;2023-11-19T04:39:15;11.27;;;9.90;;
15466;SDS011;7834;49.452;11.056;2023-11-19T04:44:13;10.90;;;9.80;;
15466;SDS011;7834;49.452;11.056;2023-11-19T04:46:39;11.80;;;9.87;;
15466;SDS011;7834;49.452;11.056;2023-11-19T04:49:04;11.47;;;9.80;;
15466;SDS011;7834;49.452;11.056;2023-11-19T04:51:30;11.93;;;9.52;;
15466;SDS011;7834;49.452;11.056;2023-11-19T04:53:56;11.17;;;9.43;;
15466;SDS011;7834;49.452;11.056;2023-11-19T04:56:21;12.05;;;10.40;;
15466;SDS011;7834;49.452;11.056;2023-11-19T04:58:48;11.90;;;9.88;;
15466;SDS011;7834;49.452;11.056;2023-11-19T05:01:19;12.90;;;9.63;;
15466;SDS011;7834;49.452;11.056;2023-11-19T05:03:45;10.93;;;9.50;;
15466;SDS011;7834;49.452;11.056;2023-11-19T05:06:11;10.53;;;9.10;;
15466;SDS011;7834;49.452;11.056;2023-11-19T05:08:37;11.40;;;9.52;;
15466;SDS011;7834;49.452;11.056;2023-11-19T05:11:02;10.40;;;9.30;;
15466;SDS011;7834;49.452;11.056;2023-11-19T05:13:29;9.95;;;8.88;;
15466;SDS011;7834;49.452;11.056;2023-11-19T05:15:54;10.43;;;9.33;;
15466;SDS011;7834;49.452;11.056;2023-11-19T05:18:20;10.07;;;8.73;;
15466;SDS011;7834;49.452;11.056;2023-11-19T05:20:45;9.82;;;8.82;;
15466;SDS011;7834;49.452;11.056;2023-11-19T05:23:11;10.67;;;9.40;;
15466;SDS011;7834;49.452;11.056;2023-11-19T05:25:36;11.05;;;9.68;;
15466;SDS011;7834;49.452;11.056;2023-11-19T05:28:02;10.17;;;9.10;;
15466;SDS011;7834;49.452;11.056;2023-11-19T05:30:27;10.87;;;9.33;;
15466;SDS011;7834;49.452;11.056;2023-11-19T05:32:53;10.02;;;9.02;;
15466;SDS011;7834;49.452;11.056;2023-11-19T05:35:18;9.90;;;8.90;;
15466;SDS011;7834;49.452;11.056;2023-11-19T05:37:44;12.20;;;10.10;;
15466;SDS011;7834;49.452;11.056;2023-11-19T05:40:10;13.75;;;10.70;;
15466;SDS011;7834;49.452;11.056;2023-11-19T05:42:43;12.60;;;10.93;;
15466;SDS011;7834;49.452;11.056;2023-11-19T05:45:11;13.55;;;12.15;;
15466;SDS011;7834;49.452;11.056;2023-11-19T05:47:37;16.58;;;14.88;;
15466;SDS011;7834;49.452;11.056;2023-11-19T05:50:02;16.48;;;14.68;;
15466;SDS011;7834;49.452;11.056;2023-11-19T05:52:29;15.10;;;13.43;;
15466;SDS011;7834;49.452;11.056;2023-11-19T05:55:00;14.18;;;12.77;;
15466;SDS011;7834;49.452;11.056;2023-11-19T05:57:27;14.45;;;13.05;;
15466;SDS011;7834;49.452;11.056;2023-11-19T05:59:54;12.82;;;11.50;;
15466;SDS011;7834;49.452;11.056;2023-11-19T06:02:20;12.50;;;11.17;;
15466;SDS011;7834;49.452;11.056;2023-11-19T06:04:45;11.98;;;10.68;;
15466;SDS011;7834;49.452;11.056;2023-11-19T06:07:13;12.57;;;10.07;;
15466;SDS011;7834;49.452;11.056;2023-11-19T06:09:39;12.40;;;10.35;;
15466;SDS011;7834;49.452;11.056;2023-11-19T06:12:05;11.05;;;9.85;;
15466;SDS011;7834;49.452;11.056;2023-11-19T06:14:31;11.20;;;9.77;;
15466;SDS011;7834;49.452;11.056;2023-11-19T06:16:57;11.93;;;9.87;;
15466;SDS011;7834;49.452;11.056;2023-11-19T06:19:22;10.68;;;9.57;;
15466;SDS011;7834;49.452;11.056;2023-11-19T06:21:49;10.52;;;8.98;;
15466;SDS011;7834;49.452;11.056;2023-11-19T06:24:15;10.33;;;8.30;;
15466;SDS011;7834;49.452;11.056;2023-11-19T06:26:41;9.57;;;8.40;;
15466;SDS011;7834;49.452;11.056;2023-11-19T06:29:06;8.73;;;7.50;;
15466;SDS011;7834;49.452;11.056;2023-11-19T06:31:32;8.45;;;7.55;;
15466;SDS011;7834;49.452;11.056;2023-11-19T06:33:57;9.53;;;7.90;;
15466;SDS011;7834;49.452;11.056;2023-11-19T06:36:23;9.25;;;7.72;;
15466;SDS011;7834;49.452;11.056;2023-11-19T06:38:49;8.90;;;7.20;;
15466;SDS011;7834;49.452;11.056;2023-11-19T06:41:14;7.37;;;6.63;;
15466;SDS011;7834;49.452;11.056;2023-11-19T06:43:40;9.18;;;7.38;;
15466;SDS011;7834;49.452;11.056;2023-11-19T06:46:05;7.70;;;6.90;;
15466;SDS011;7834;49.452;11.056;2023-11-19T06:48:32;8.63;;;7.43;;
15466;SDS011;7834;49.452;11.056;2023-11-19T06:50:57;8.05;;;7.25;;
15466;SDS011;7834;49.452;11.056;2023-11-19T06:53:23;9.63;;;7.77;;
15466;SDS011;7834;49.452;11.056;2023-11-19T06:55:48;8.70;;;7.18;;
15466;SDS011;7834;49.452;11.056;2023-11-19T06:58:14;8.80;;;7.47;;
15466;SDS011;7834;49.452;11.056;2023-11-19T07:00:39;7.90;;;7.03;;
15466;SDS011;7834;49.452;11.056;2023-11-19T07:03:05;8.60;;;7.30;;
15466;SDS011;7834;49.452;11.056;2023-11-19T07:05:35;8.70;;;6.82;;
15466;SDS011;7834;49.452;11.056;2023-11-19T07:08:01;8.13;;;6.80;;
15466;SDS011;7834;49.452;11.056;2023-11-19T07:10:26;7.70;;;6.90;;
15466;SDS011;7834;49.452;11.056;2023-11-19T07:12:52;7.60;;;6.70;;
15466;SDS011;7834;49.452;11.056;2023-11-19T07:15:17;7.17;;;6.10;;
15466;SDS011;7834;49.452;11.056;2023-11-19T07:17:43;7.65;;;6.15;;
15466;SDS011;7834;49.452;11.056;2023-11-19T07:20:10;6.88;;;5.88;;
15466;SDS011;7834;49.452;11.056;2023-11-19T07:22:38;6.22;;;5.30;;
15466;SDS011;7834;49.452;11.056;2023-11-19T07:25:04;5.53;;;5.03;;
15466;SDS011;7834;49.452;11.056;2023-11-19T07:27:30;6.35;;;5.28;;
15466;SDS011;7834;49.452;11.056;2023-11-19T07:29:55;5.30;;;4.80;;
15466;SDS011;7834;49.452;11.056;2023-11-19T07:32:21;5.55;;;4.93;;
15466;SDS011;7834;49.452;11.056;2023-11-19T07:34:46;5.10;;;4.53;;
15466;SDS011;7834;49.452;11.056;2023-11-19T07:37:12;5.17;;;4.60;;
15466;SDS011;7834;49.452;11.056;2023-11-19T07:39:37;7.05;;;5.15;;
15466;SDS011;7834;49.452;11.056;2023-11-19T07:42:06;5.90;;;5.30;;
15466;SDS011;7834;49.452;11.056;2023-11-19T07:44:32;5.57;;;5.00;;
15466;SDS011;7834;49.452;11.056;2023-11-19T07:46:57;4.27;;;3.87;;
15466;SDS011;7834;49.452;11.056;2023-11-19T07:49:23;4.30;;;3.90;;
15466;SDS011;7834;49.452;11.056;2023-11-19T07:51:49;4.80;;;4.30;;
15466;SDS011;7834;49.452;11.056;2023-11-19T07:54:14;3.80;;;3.50;;
15466;SDS011;7834;49.452;11.056;2023-11-19T07:56:40;3.83;;;3.40;;
15466;SDS011;7834;49.452;11.056;2023-11-19T07:59:05;4.23;;;3.33;;
15466;SDS011;7834;49.452;11.056;2023-11-19T08:01:32;2.50;;;2.20;;
15466;SDS011;7834;49.452;11.056;2023-11-19T08:03:57;1.48;;;1.30;;
15466;SDS011;7834;49.452;11.056;2023-11-19T08:06:23;1.27;;;1.08;;
15466;SDS011;7834;49.452;11.056;2023-11-19T08:08:49;1.13;;;0.87;;
15466;SDS011;7834;49.452;11.056;2023-11-19T08:11:14;1.13;;;1.00;;
15466;SDS011;7834;49.452;11.056;2023-11-19T08:13:40;0.95;;;0.90;;
15466;SDS011;7834;49.452;11.056;2023-11-19T08:16:06;1.20;;;1.10;;
15466;SDS011;7834;49.452;11.056;2023-11-19T08:18:32;1.30;;;0.80;;
15466;SDS011;7834;49.452;11.056;2023-11-19T08:20:57;1.63;;;0.90;;
15466;SDS011;7834;49.452;11.056;2023-11-19T08:23:24;5.60;;;1.20;;
15466;SDS011;7834;49.452;11.056;2023-11-19T08:25:51;1.65;;;1.10;;
15466;SDS011;7834;49.452;11.056;2023-11-19T08:28:16;2.05;;;1.00;;
15466;SDS011;7834;49.452;11.056;2023-11-19T08:30:42;1.53;;;1.10;;
15466;SDS011;7834;49.452;11.056;2023-11-19T08:33:09;1.88;;;1.20;;
15466;SDS011;7834;49.452;11.056;2023-11-19T08:35:35;1.70;;;1.20;;
15466;SDS011;7834;49.452;11.056;2023-11-19T08:38:00;1.90;;;1.30;;
15466;SDS011;7834;49.452;11.056;2023-11-19T08:40:27;1.60;;;1.30;;
15466;SDS011;7834;49.452;11.056;2023-11-19T08:42:52;1.20;;;1.00;;
15466;SDS011;7834;49.452;11.056;2023-11-19T08:45:20;1.75;;;1.17;;
15466;SDS011;7834;49.452;11.056;2023-11-19T08:47:46;1.90;;;1.50;;
15466;SDS011;7834;49.452;11.056;2023-11-19T08:50:12;1.70;;;1.20;;
15466;SDS011;7834;49.452;11.056;2023-11-19T08:52:37;2.17;;;1.30;;
15466;SDS011;7834;49.452;11.056;2023-11-19T08:55:03;5.38;;;1.35;;
15466;SDS011;7834;49.452;11.056;2023-11-19T08:57:31;1.75;;;1.27;;
15466;SDS011;7834;49.452;11.056;2023-11-19T08:59:56;1.57;;;1.37;;
15466;SDS011;7834;49.452;11.056;2023-11-19T09:02:22;1.70;;;1.27;;
15466;SDS011;7834;49.452;11.056;2023-11-19T09:04:47;2.43;;;1.30;;
15466;SDS011;7834;49.452;11.056;2023-11-19T09:07:13;2.45;;;1.70;;
15466;SDS011;7834;49.452;11.056;2023-11-19T09:09:38;4.32;;;2.50;;
15466;SDS011;7834;49.452;11.056;2023-11-19T09:12:04;3.57;;;2.63;;
15466;SDS011;7834;49.452;11.056;2023-11-19T09:14:30;3.72;;;1.95;;
15466;SDS011;7834;49.452;11.056;2023-11-19T09:16:56;4.00;;;2.37;;
15466;SDS011;7834;49.452;11.056;2023-11-19T09:19:21;1.92;;;1.48;;
15466;SDS011;7834;49.452;11.056;2023-11-19T09:21:47;1.70;;;1.10;;
15466;SDS011;7834;49.452;11.056;2023-11-19T09:24:13;2.00;;;1.35;;
15466;SDS011;7834;49.452;11.056;2023-11-19T09:26:39;3.10;;;1.30;;
15466;SDS011;7834;49.452;11.056;2023-11-19T09:29:09;2.83;;;1.50;;
15466;SDS011;7834;49.452;11.056;2023-11-19T09:31:35;2.00;;;1.50;;
15466;SDS011;7834;49.452;11.056;2023-11-19T09:34:03;3.63;;;2.38;;
15466;SDS011;7834;49.452;11.056;2023-11-19T09:36:28;4.27;;;2.80;;
15466;SDS011;7834;49.452;11.056;2023-11-19T09:38:54;1.80;;;1.50;;
15466;SDS011;7834;49.452;11.056;2023-11-19T09:41:19;1.65;;;1.38;;
15466;SDS011;7834;49.452;11.056;2023-11-19T09:43:45;3.20;;;1.40;;
15466;SDS011;7834;49.452;11.056;2023-11-19T09:46:12;2.38;;;1.30;;
15466;SDS011;7834;49.452;11.056;2023-11-19T09:48:39;3.80;;;1.40;;
15466;SDS011;7834;49.452;11.056;2023-11-19T09:51:07;3.50;;;1.60;;
15466;SDS011;7834;49.452;11.056;2023-11-19T09:53:34;3.58;;;1.55;;
15466;SDS011;7834;49.452;11.056;2023-11-19T09:56:00;2.15;;;1.30;;
15466;SDS011;7834;49.452;11.056;2023-11-19T09:58:28;2.47;;;1.40;;
15466;SDS011;7834;49.452;11.056;2023-11-19T10:00:54;2.03;;;1.30;;
15466;SDS011;7834;49.452;11.056;2023-11-19T10:03:20;3.97;;;1.80;;
15466;SDS011;7834;49.452;11.056;2023-11-19T10:05:46;3.28;;;1.70;;
15466;SDS011;7834;49.452;11.056;2023-11-19T10:08:12;3.63;;;1.90;;
15466;SDS011;7834;49.452;11.056;2023-11-19T10:10:37;2.47;;;1.30;;
15466;SDS011;7834;49.452;11.056;2023-11-19T10:13:03;2.40;;;1.30;;
15466;SDS011;7834;49.452;11.056;2023-11-19T10:15:29;2.53;;;1.40;;
15466;SDS011;7834;49.452;11.056;2023-11-19T10:18:00;3.25;;;1.27;;
15466;SDS011;7834;49.452;11.056;2023-11-19T10:20:26;3.90;;;1.90;;
15466;SDS011;7834;49.452;11.056;2023-11-19T10:22:54;2.33;;;1.50;;
15466;SDS011;7834;49.452;11.056;2023-11-19T10:25:27;3.00;;;1.35;;
15466;SDS011;7834;49.452;11.056;2023-11-19T10:27:53;3.10;;;1.40;;
15466;SDS011;7834;49.452;11.056;2023-11-19T10:30:26;3.13;;;1.33;;
15466;SDS011;7834;49.452;11.056;2023-11-19T10:33:04;3.28;;;1.58;;
15466;SDS011;7834;49.452;11.056;2023-11-19T10:35:50;2.20;;;1.50;;
15466;SDS011;7834;49.452;11.056;2023-11-19T10:38:19;4.90;;;1.70;;
15466;SDS011;7834;49.452;11.056;2023-11-19T10:40:45;3.15;;;1.70;;
15466;SDS011;7834;49.452;11.056;2023-11-19T10:43:10;3.00;;;1.50;;
15466;SDS011;7834;49.452;11.056;2023-11-19T10:45:36;1.73;;;1.42;;
15466;SDS011;7834;49.452;11.056;2023-11-19T10:48:03;3.38;;;1.60;;
15466;SDS011;7834;49.452;11.056;2023-11-19T10:50:32;2.20;;;1.30;;
15466;SDS011;7834;49.452;11.056;2023-11-19T10:52:58;2.75;;;1.65;;
15466;SDS011;7834;49.452;11.056;2023-11-19T10:55:26;2.75;;;1.67;;
15466;SDS011;7834;49.452;11.056;2023-11-19T10:57:52;3.80;;;2.63;;
15466;SDS011;7834;49.452;11.056;2023-11-19T11:00:21;4.35;;;2.45;;
15466;SDS011;7834;49.452;11.056;2023-11-19T11:02:48;2.55;;;1.80;;
15466;SDS011;7834;49.452;11.056;2023-11-19T11:05:16;3.60;;;1.60;;
15466;SDS011;7834;49.452;11.056;2023-11-19T11:07:42;2.45;;;1.50;;
15466;SDS011;7834;49.452;11.056;2023-11-19T11:10:09;2.55;;;1.42;;
15466;SDS011;7834;49.452;11.056;2023-11-19T11:12:37;1.73;;;1.30;;
15466;SDS011;7834;49.452;11.056;2023-11-19T11:15:07;2.63;;;1.50;;
15466;SDS011;7834;49.452;11.056;2023-11-19T11:17:33;2.03;;;1.17;;
15466;SDS011;7834;49.452;11.056;2023-11-19T11:19:59;2.50;;;1.40;;
15466;SDS011;7834;49.452;11.056;2023-11-19T11:22:25;2.53;;;1.50;;
15466;SDS011;7834;49.452;11.056;2023-11-19T11:25:15;2.63;;;1.63;;
15466;SDS011;7834;49.452;11.056;2023-11-19T11:38:12;2.30;;;1.40;;
15466;SDS011;7834;49.452;11.056;2023-11-19T11:40:39;2.88;;;1.45;;
15466;SDS011;7834;49.452;11.056;2023-11-19T11:43:27;3.08;;;1.40;;
15466;SDS011;7834;49.452;11.056;2023-11-19T11:45:51;2.30;;;1.30;;
15466;SDS011;7834;49.452;11.056;2023-11-19T11:48:17;2.43;;;1.50;;
15466;SDS011;7834;49.452;11.056;2023-11-19T11:50:51;3.85;;;1.65;;
15466;SDS011;7834;49.452;11.056;2023-11-19T11:53:17;4.72;;;1.70;;
15466;SDS011;7834;49.452;11.056;2023-11-19T11:58:18;3.17;;;1.50;;
15466;SDS011;7834;49.452;11.056;2023-11-19T12:00:44;3.38;;;1.65;;
15466;SDS011;7834;49.452;11.056;2023-11-19T12:03:12;2.47;;;1.50;;
15466;SDS011;7834;49.452;11.056;2023-11-19T12:05:41;4.03;;;1.40;;
15466;SDS011;7834;49.452;11.056;2023-11-19T12:08:07;3.17;;;1.65;;
15466;SDS011;7834;49.452;11.056;2023-11-19T12:13:10;4.00;;;1.65;;
15466;SDS011;7834;49.452;11.056;2023-11-19T12:16:06;4.45;;;1.40;;
15466;SDS011;7834;49.452;11.056;2023-11-19T12:18:31;2.83;;;1.63;;
15466;SDS011;7834;49.452;11.056;2023-11-19T12:21:00;3.10;;;1.85;;
15466;SDS011;7834;49.452;11.056;2023-11-19T12:23:28;3.65;;;1.83;;
15466;SDS011;7834;49.452;11.056;2023-11-19T12:25:54;2.58;;;1.80;;
15466;SDS011;7834;49.452;11.056;2023-11-19T12:28:20;3.08;;;1.80;;
15466;SDS011;7834;49.452;11.056;2023-11-19T12:30:46;3.13;;;2.00;;
15466;SDS011;7834;49.452;11.056;2023-11-19T12:33:13;4.20;;;1.60;;
15466;SDS011;7834;49.452;11.056;2023-11-19T12:35:39;3.10;;;1.58;;
15466;SDS011;7834;49.452;11.056;2023-11-19T12:38:05;1.90;;;1.60;;
15466;SDS011;7834;49.452;11.056;2023-11-19T12:40:31;6.32;;;4.03;;
15466;SDS011;7834;49.452;11.056;2023-11-19T12:42:57;2.80;;;1.70;;
15466;SDS011;7834;49.452;11.056;2023-11-19T12:45:22;2.03;;;1.47;;
15466;SDS011;7834;49.452;11.056;2023-11-19T12:47:49;2.80;;;1.40;;
15466;SDS011;7834;49.452;11.056;2023-11-19T12:50:15;3.28;;;1.48;;
15466;SDS011;7834;49.452;11.056;2023-11-19T12:52:43;2.63;;;1.27;;
15466;SDS011;7834;49.452;11.056;2023-11-19T12:55:24;2.67;;;1.55;;
15466;SDS011;7834;49.452;11.056;2023-11-19T12:57:51;2.00;;;1.55;;
15466;SDS011;7834;49.452;11.056;2023-11-19T13:00:24;3.63;;;2.50;;
15466;SDS011;7834;49.452;11.056;2023-11-19T13:07:47;2.78;;;1.75;;
15466;SDS011;7834;49.452;11.056;2023-11-19T13:10:12;2.53;;;1.40;;
15466;SDS011;7834;49.452;11.056;2023-11-19T13:12:38;2.03;;;1.50;;
15466;SDS011;7834;49.452;11.056;2023-11-19T13:15:04;2.40;;;1.38;;
15466;SDS011;7834;49.452;11.056;2023-11-19T13:17:30;2.67;;;1.30;;
15466;SDS011;7834;49.452;11.056;2023-11-19T13:19:56;3.20;;;1.40;;
15466;SDS011;7834;49.452;11.056;2023-11-19T13:22:22;2.95;;;1.48;;
15466;SDS011;7834;49.452;11.056;2023-11-19T13:24:48;2.80;;;2.17;;
15466;SDS011;7834;49.452;11.056;2023-11-19T13:27:13;2.05;;;1.40;;
15466;SDS011;7834;49.452;11.056;2023-11-19T13:29:39;4.80;;;1.63;;
15466;SDS011;7834;49.452;11.056;2023-11-19T13:32:05;3.67;;;1.10;;
15466;SDS011;7834;49.452;11.056;2023-11-19T13:34:31;3.10;;;1.50;;
15466;SDS011;7834;49.452;11.056;2023-11-19T13:36:56;4.55;;;1.48;;
15466;SDS011;7834;49.452;11.056;2023-11-19T13:39:22;2.95;;;1.30;;
15466;SDS011;7834;49.452;11.056;2023-11-19T13:41:49;2.63;;;1.50;;
15466;SDS011;7834;49.452;11.056;2023-11-19T13:44:15;3.13;;;1.50;;
15466;SDS011;7834;49.452;11.056;2023-11-19T13:46:41;2.67;;;1.40;;
15466;SDS011;7834;49.452;11.056;2023-11-19T13:49:07;4.67;;;1.80;;
15466;SDS011;7834;49.452;11.056;2023-11-19T13:51:32;2.13;;;1.50;;
15466;SDS011;7834;49.452;11.056;2023-11-19T13:53:58;3.93;;;1.47;;
15466;SDS011;7834;49.452;11.056;2023-11-19T13:56:23;2.90;;;1.33;;
15466;SDS011;7834;49.452;11.056;2023-11-19T13:58:49;2.80;;;1.40;;
15466;SDS011;7834;49.452;11.056;2023-11-19T14:01:14;4.23;;;1.50;;
15466;SDS011;7834;49.452;11.056;2023-11-19T14:03:40;4.17;;;1.60;;
15466;SDS011;7834;49.452;11.056;2023-11-19T14:06:07;5.78;;;1.70;;
15466;SDS011;7834;49.452;11.056;2023-11-19T14:08:33;3.40;;;1.30;;
15466;SDS011;7834;49.452;11.056;2023-11-19T14:10:59;3.40;;;1.33;;
15466;SDS011;7834;49.452;11.056;2023-11-19T14:13:24;2.05;;;1.20;;
15466;SDS011;7834;49.452;11.056;2023-11-19T14:15:50;2.80;;;1.15;;
15466;SDS011;7834;49.452;11.056;2023-11-19T14:18:16;2.00;;;1.17;;
15466;SDS011;7834;49.452;11.056;2023-11-19T14:20:42;2.15;;;1.30;;
15466;SDS011;7834;49.452;11.056;2023-11-19T14:23:08;2.72;;;1.30;;
15466;SDS011;7834;49.452;11.056;2023-11-19T14:25:34;1.85;;;1.20;;
15466;SDS011;7834;49.452;11.056;2023-11-19T14:28:00;2.90;;;1.30;;
15466;SDS011;7834;49.452;11.056;2023-11-19T14:30:25;3.03;;;1.37;;
15466;SDS011;7834;49.452;11.056;2023-11-19T14:32:51;5.30;;;1.80;;
15466;SDS011;7834;49.452;11.056;2023-11-19T14:35:16;3.45;;;1.80;;
15466;SDS011;7834;49.452;11.056;2023-11-19T14:37:42;5.17;;;2.20;;
15466;SDS011;7834;49.452;11.056;2023-11-19T14:40:08;4.20;;;2.07;;
15466;SDS011;7834;49.452;11.056;2023-11-19T14:42:36;5.00;;;2.30;;
15466;SDS011;7834;49.452;11.056;2023-11-19T14:45:02;5.07;;;2.50;;
15466;SDS011;7834;49.452;11.056;2023-11-19T14:47:28;6.50;;;2.60;;
15466;SDS011;7834;49.452;11.056;2023-11-19T14:49:54;3.25;;;1.92;;
15466;SDS011;7834;49.452;11.056;2023-11-19T14:52:20;4.50;;;1.73;;
15466;SDS011;7834;49.452;11.056;2023-11-19T14:54:45;3.80;;;2.13;;
15466;SDS011;7834;49.452;11.056;2023-11-19T14:57:12;3.15;;;1.55;;
15466;SDS011;7834;49.452;11.056;2023-11-19T14:59:38;2.92;;;1.30;;
15466;SDS011;7834;49.452;11.056;2023-11-19T15:02:04;3.45;;;1.77;;
15466;SDS011;7834;49.452;11.056;2023-11-19T15:04:31;2.30;;;1.70;;
15466;SDS011;7834;49.452;11.056;2023-11-19T15:06:57;4.07;;;1.50;;